createdAt,value
2023-08-12T00:00:22.616Z,80.92
2023-08-12T00:01:26.314Z,81.24
2023-08-12T00:02:28.707Z,81.27
2023-08-12T00:03:31.098Z,81.20
2023-08-12T00:04:33.077Z,81.28
2023-08-12T00:05:36.995Z,81.22
2023-08-12T00:06:38.884Z,81.37
2023-08-12T00:07:44.130Z,81.45
2023-08-12T00:08:46.104Z,81.62
2023-08-12T00:09:48.021Z,81.22
2023-08-12T00:10:50.140Z,81.04
2023-08-12T00:11:52.158Z,81.03
2023-08-12T00:12:54.136Z,80.96
2023-08-12T00:13:56.062Z,80.60
2023-08-12T00:14:58.057Z,80.77
2023-08-12T00:16:00.166Z,80.85
2023-08-12T00:17:02.185Z,80.62
2023-08-12T00:18:08.020Z,80.84
2023-08-12T00:19:10.070Z,80.92
2023-08-12T00:20:13.771Z,81.09
2023-08-12T00:21:16.540Z,81.05
2023-08-12T00:22:18.676Z,81.51
2023-08-12T00:23:20.920Z,81.62
2023-08-12T00:24:22.962Z,81.90
2023-08-12T00:25:25.008Z,82.08
2023-08-12T00:26:28.189Z,81.94
2023-08-12T00:27:30.125Z,82.11
2023-08-12T00:28:32.205Z,81.91
2023-08-12T00:29:34.574Z,82.15
2023-08-12T00:30:36.553Z,81.96
2023-08-12T00:31:38.846Z,82.15
2023-08-12T00:32:42.251Z,81.71
2023-08-12T00:33:44.238Z,81.68
2023-08-12T00:34:46.145Z,81.52
2023-08-12T00:35:48.057Z,82.09
2023-08-12T00:36:50.084Z,82.30
2023-08-12T00:37:52.336Z,82.09
2023-08-12T00:38:54.496Z,82.07
2023-08-12T00:39:56.512Z,82.26
2023-08-12T00:40:59.439Z,82.31
2023-08-12T00:42:01.502Z,82.26
2023-08-12T00:43:04.733Z,82.44
2023-08-12T00:44:06.787Z,82.50
2023-08-12T00:45:14.371Z,82.27
2023-08-12T00:46:16.702Z,82.37
2023-08-12T00:47:18.946Z,82.16
2023-08-12T00:48:21.031Z,82.05
2023-08-12T00:49:25.320Z,82.01
2023-08-12T00:50:27.450Z,82.18
2023-08-12T00:51:29.825Z,81.88
2023-08-12T00:52:31.743Z,82.45
2023-08-12T00:53:33.679Z,82.59
2023-08-12T00:54:35.744Z,82.98
2023-08-12T00:55:37.756Z,82.98
2023-08-12T00:56:39.811Z,83.08
2023-08-12T00:57:41.934Z,83.01
2023-08-12T00:58:44.766Z,82.95
2023-08-12T00:59:46.810Z,83.08
2023-08-12T01:00:48.818Z,83.21
2023-08-12T01:01:51.604Z,83.00
2023-08-12T01:02:55.325Z,82.98
2023-08-12T01:03:58.569Z,83.03
2023-08-12T01:05:00.790Z,83.43
2023-08-12T01:06:04.061Z,83.39
2023-08-12T01:07:05.989Z,83.30
2023-08-12T01:08:08.669Z,84.05
2023-08-12T01:09:11.137Z,83.69
2023-08-12T01:10:16.712Z,84.32
2023-08-12T01:11:37.099Z,84.26
2023-08-12T01:12:46.215Z,83.90
2023-08-12T01:14:00.238Z,83.82
2023-08-12T01:15:18.876Z,83.54
2023-08-12T01:16:23.437Z,83.42
2023-08-12T01:17:30.274Z,83.12
2023-08-12T01:18:33.100Z,83.01
2023-08-12T01:19:37.898Z,83.01
2023-08-12T01:20:40.434Z,82.97
2023-08-12T01:21:47.437Z,82.94
2023-08-12T01:22:51.511Z,82.98
2023-08-12T01:23:53.792Z,83.19
2023-08-12T01:24:56.578Z,83.02
2023-08-12T01:25:58.520Z,83.15
2023-08-12T01:27:00.783Z,83.23
2023-08-12T01:28:02.606Z,83.99
2023-08-12T01:29:04.968Z,83.61
2023-08-12T01:30:07.485Z,83.59
2023-08-12T01:31:16.559Z,83.36
2023-08-12T01:32:32.567Z,82.99
2023-08-12T01:33:43.651Z,83.03
2023-08-12T01:34:57.995Z,83.18
2023-08-12T01:36:14.601Z,83.17
2023-08-12T01:37:26.078Z,83.07
2023-08-12T01:38:29.816Z,83.34
2023-08-12T01:39:34.929Z,83.51
2023-08-12T01:40:41.405Z,84.10
2023-08-12T01:41:43.396Z,83.96
2023-08-12T01:42:47.332Z,83.97
2023-08-12T01:43:49.768Z,84.09
2023-08-12T01:44:51.892Z,84.41
2023-08-12T01:45:57.057Z,84.33
2023-08-12T01:47:00.924Z,84.17
2023-08-12T01:48:03.886Z,83.91
2023-08-12T01:49:06.015Z,83.85
2023-08-12T01:50:08.062Z,83.54
2023-08-12T01:51:10.065Z,83.45
2023-08-12T01:52:12.451Z,83.50
2023-08-12T01:53:14.273Z,83.64
2023-08-12T01:54:16.232Z,84.13
2023-08-12T01:55:18.143Z,84.26
2023-08-12T01:56:20.062Z,84.41
2023-08-12T01:57:22.223Z,84.40
2023-08-12T01:58:24.116Z,84.81
2023-08-12T01:59:26.101Z,84.58
2023-08-12T02:00:28.115Z,84.39
2023-08-12T02:01:30.196Z,84.72
2023-08-12T02:02:32.274Z,84.62
2023-08-12T02:03:34.492Z,84.89
2023-08-12T02:04:38.504Z,84.90
2023-08-12T02:05:40.445Z,84.72
2023-08-12T02:06:42.451Z,84.53
2023-08-12T02:07:44.817Z,84.43
2023-08-12T02:08:46.778Z,84.11
2023-08-12T02:09:48.773Z,83.90
2023-08-12T02:10:50.650Z,83.85
2023-08-12T02:11:52.588Z,83.90
2023-08-12T02:12:54.529Z,83.91
2023-08-12T02:13:56.658Z,83.96
2023-08-12T02:14:58.654Z,83.67
2023-08-12T02:16:00.586Z,84.28
2023-08-12T02:17:03.056Z,83.96
2023-08-12T02:18:05.158Z,84.17
2023-08-12T02:19:07.147Z,84.08
2023-08-12T02:20:09.277Z,84.26
2023-08-12T02:21:11.260Z,84.47
2023-08-12T02:22:13.227Z,84.58
2023-08-12T02:23:15.595Z,84.60
2023-08-12T02:24:17.571Z,84.66
2023-08-12T02:25:19.627Z,84.71
2023-08-12T02:26:21.767Z,84.95
2023-08-12T02:27:23.745Z,84.98
2023-08-12T02:28:25.799Z,84.83
2023-08-12T02:29:28.095Z,84.62
2023-08-12T02:30:30.414Z,84.62
2023-08-12T02:31:32.468Z,84.45
2023-08-12T02:32:34.579Z,84.31
2023-08-12T02:33:36.554Z,84.22
2023-08-12T02:34:38.568Z,84.25
2023-08-12T02:35:40.514Z,84.40
2023-08-12T02:36:42.413Z,84.33
2023-08-12T02:37:44.292Z,84.03
2023-08-12T02:38:46.193Z,84.22
2023-08-12T02:39:48.637Z,84.06
2023-08-12T02:40:51.430Z,84.08
2023-08-12T02:41:53.485Z,84.22
2023-08-12T02:42:55.411Z,84.43
2023-08-12T02:43:57.413Z,84.30
2023-08-12T02:45:01.280Z,84.29
2023-08-12T02:46:03.500Z,84.54
2023-08-12T02:47:05.653Z,84.53
2023-08-12T02:48:07.996Z,84.38
2023-08-12T02:49:09.860Z,84.42
2023-08-12T02:50:11.966Z,84.34
2023-08-12T02:51:15.082Z,84.05
2023-08-12T02:52:16.977Z,83.84
2023-08-12T02:53:18.920Z,84.20
2023-08-12T02:54:20.804Z,84.32
2023-08-12T02:55:22.760Z,84.41
2023-08-12T02:56:24.825Z,84.69
2023-08-12T02:57:27.054Z,85.11
2023-08-12T02:58:29.096Z,84.85
2023-08-12T02:59:31.544Z,84.66
2023-08-12T03:00:33.533Z,84.24
2023-08-12T03:01:35.540Z,84.29
2023-08-12T03:02:37.586Z,84.16
2023-08-12T03:03:39.534Z,84.25
2023-08-12T03:04:41.442Z,84.30
2023-08-12T03:05:46.717Z,84.25
2023-08-12T03:06:48.663Z,84.09
2023-08-12T03:07:52.970Z,84.40
2023-08-12T03:08:54.962Z,84.21
2023-08-12T03:09:56.899Z,84.17
2023-08-12T03:11:03.495Z,84.01
2023-08-12T03:12:06.105Z,84.38
2023-08-12T03:13:08.160Z,84.39
2023-08-12T03:14:10.853Z,84.48
2023-08-12T03:15:12.977Z,84.67
2023-08-12T03:16:15.609Z,84.89
2023-08-12T03:17:17.781Z,84.76
2023-08-12T03:18:19.692Z,85.06
2023-08-12T03:19:21.554Z,85.47
2023-08-12T03:20:24.338Z,85.70
2023-08-12T03:21:26.293Z,85.63
2023-08-12T03:22:31.438Z,86.02
2023-08-12T03:23:33.408Z,86.15
2023-08-12T03:24:35.490Z,86.12
2023-08-12T03:25:37.364Z,86.04
2023-08-12T03:26:39.295Z,85.87
2023-08-12T03:27:41.749Z,85.66
2023-08-12T03:28:43.615Z,85.83
2023-08-12T03:29:45.557Z,85.42
2023-08-12T03:30:54.622Z,85.17
2023-08-12T03:31:56.874Z,85.21
2023-08-12T03:32:59.061Z,84.94
2023-08-12T03:34:02.039Z,85.20
2023-08-12T03:35:05.251Z,85.11
2023-08-12T03:36:07.726Z,85.30
2023-08-12T03:37:10.109Z,85.53
2023-08-12T03:38:12.164Z,85.31
2023-08-12T03:39:14.499Z,85.46
2023-08-12T03:40:16.458Z,85.41
2023-08-12T03:41:18.430Z,85.28
2023-08-12T03:42:20.536Z,85.31
2023-08-12T03:43:22.451Z,85.27
2023-08-12T03:44:24.450Z,85.20
2023-08-12T03:45:26.513Z,85.10
2023-08-12T03:46:28.510Z,85.08
2023-08-12T03:47:30.490Z,85.24
2023-08-12T03:48:33.112Z,84.96
2023-08-12T03:49:35.076Z,84.79
2023-08-12T03:50:38.508Z,84.81
2023-08-12T03:51:40.759Z,84.71
2023-08-12T03:52:42.745Z,84.88
2023-08-12T03:53:44.821Z,84.93
2023-08-12T03:54:46.710Z,84.87
2023-08-12T03:55:48.623Z,84.97
2023-08-12T03:56:50.691Z,85.30
2023-08-12T03:57:53.352Z,85.25
2023-08-12T03:58:55.294Z,85.25
2023-08-12T03:59:57.337Z,85.17
2023-08-12T04:00:59.265Z,85.09
2023-08-12T04:02:01.449Z,84.96
2023-08-12T04:03:03.794Z,84.95
2023-08-12T04:04:06.118Z,84.84
2023-08-12T04:05:08.461Z,84.66
2023-08-12T04:06:10.254Z,84.86
2023-08-12T04:07:12.423Z,84.83
2023-08-12T04:08:14.694Z,84.68
2023-08-12T04:09:16.698Z,84.61
2023-08-12T04:10:18.728Z,84.79
2023-08-12T04:11:20.714Z,84.88
2023-08-12T04:12:22.803Z,84.91
2023-08-12T04:13:24.777Z,85.05
2023-08-12T04:14:26.785Z,84.98
2023-08-12T04:15:29.154Z,84.91
2023-08-12T04:16:31.039Z,84.94
2023-08-12T04:17:33.772Z,84.94
2023-08-12T04:18:35.856Z,85.01
2023-08-12T04:19:37.771Z,84.96
2023-08-12T04:20:40.453Z,84.91
2023-08-12T04:21:42.473Z,84.96
2023-08-12T04:22:45.835Z,85.05
2023-08-12T04:23:49.037Z,84.90
2023-08-12T04:24:50.997Z,85.40
2023-08-12T04:25:55.577Z,85.52
2023-08-12T04:26:57.515Z,84.98
2023-08-12T04:27:59.757Z,85.25
2023-08-12T04:29:01.702Z,85.15
2023-08-12T04:30:03.955Z,85.31
2023-08-12T04:31:11.564Z,85.15
2023-08-12T04:32:13.682Z,85.18
2023-08-12T04:33:15.818Z,85.31
2023-08-12T04:34:18.105Z,84.97
2023-08-12T04:35:19.946Z,85.12
2023-08-12T04:36:22.210Z,85.16
2023-08-12T04:37:25.534Z,85.27
2023-08-12T04:38:28.815Z,85.48
2023-08-12T04:39:30.826Z,85.62
2023-08-12T04:40:34.067Z,85.47
2023-08-12T04:41:35.991Z,85.55
2023-08-12T04:42:37.958Z,85.65
2023-08-12T04:43:39.899Z,85.84
2023-08-12T04:44:41.858Z,85.72
2023-08-12T04:45:47.907Z,85.74
2023-08-12T04:46:49.792Z,85.69
2023-08-12T04:47:51.817Z,85.56
2023-08-12T04:48:53.769Z,85.42
2023-08-12T04:49:55.959Z,85.35
2023-08-12T04:51:01.509Z,85.32
2023-08-12T04:52:03.457Z,85.18
2023-08-12T04:53:06.904Z,85.29
2023-08-12T04:54:09.260Z,85.09
2023-08-12T04:55:14.265Z,85.03
2023-08-12T04:56:16.350Z,85.12
2023-08-12T04:57:18.307Z,85.11
2023-08-12T04:58:20.195Z,85.07
2023-08-12T04:59:22.167Z,85.24
2023-08-12T05:00:24.863Z,85.13
2023-08-12T05:01:26.999Z,85.13
2023-08-12T05:02:29.091Z,85.02
2023-08-12T05:03:31.232Z,85.08
2023-08-12T05:04:33.205Z,85.22
2023-08-12T05:05:35.120Z,85.21
2023-08-12T05:06:37.191Z,85.25
2023-08-12T05:07:41.081Z,85.31
2023-08-12T05:08:43.266Z,85.34
2023-08-12T05:09:45.426Z,85.56
2023-08-12T05:10:51.064Z,85.45
2023-08-12T05:11:53.315Z,85.48
2023-08-12T05:12:56.231Z,85.59
2023-08-12T05:13:58.177Z,85.43
2023-08-12T05:15:00.290Z,85.69
2023-08-12T05:16:02.392Z,85.49
2023-08-12T05:17:04.846Z,85.60
2023-08-12T05:18:07.371Z,85.48
2023-08-12T05:19:09.274Z,85.32
2023-08-12T05:20:12.206Z,85.28
2023-08-12T05:21:14.278Z,85.15
2023-08-12T05:22:17.347Z,84.98
2023-08-12T05:23:19.332Z,84.93
2023-08-12T05:24:25.977Z,84.93
2023-08-12T05:25:27.950Z,84.91
2023-08-12T05:27:49.145Z,84.89
2023-08-12T05:28:51.452Z,84.92
2023-08-12T05:29:53.282Z,84.99
2023-08-12T05:30:56.700Z,85.08
2023-08-12T05:31:58.661Z,85.20
2023-08-12T05:33:00.719Z,85.25
2023-08-12T05:34:02.751Z,85.24
2023-08-12T05:35:04.891Z,84.90
2023-08-12T05:36:06.861Z,85.06
2023-08-12T05:37:09.340Z,84.88
2023-08-12T05:38:11.657Z,84.98
2023-08-12T05:39:13.431Z,85.02
2023-08-12T05:40:15.467Z,84.80
2023-08-12T05:41:17.425Z,84.82
2023-08-12T05:42:19.430Z,84.62
2023-08-12T05:43:21.465Z,84.67
2023-08-12T05:44:23.392Z,84.63
2023-08-12T05:45:28.460Z,84.58
2023-08-12T05:46:30.409Z,84.53
2023-08-12T05:47:33.856Z,84.61
2023-08-12T05:48:35.888Z,84.54
2023-08-12T05:49:37.920Z,84.65
2023-08-12T05:50:39.871Z,84.58
2023-08-12T05:51:42.708Z,84.52
2023-08-12T05:52:45.452Z,84.67
2023-08-12T05:53:47.634Z,84.66
2023-08-12T05:54:49.535Z,84.70
2023-08-12T05:55:51.589Z,84.79
2023-08-12T05:56:53.612Z,84.82
2023-08-12T05:57:55.526Z,84.94
2023-08-12T05:58:57.472Z,84.79
2023-08-12T05:59:59.515Z,84.89
2023-08-12T06:01:01.760Z,85.04
2023-08-12T06:02:03.679Z,85.17
2023-08-12T06:03:05.718Z,85.02
2023-08-12T06:04:07.646Z,84.90
2023-08-12T06:05:10.008Z,84.74
2023-08-12T06:06:11.825Z,85.11
2023-08-12T06:07:13.833Z,84.97
2023-08-12T06:08:15.941Z,84.85
2023-08-12T06:09:17.940Z,85.08
2023-08-12T06:10:19.860Z,85.32
2023-08-12T06:11:21.981Z,85.17
2023-08-12T06:12:23.952Z,85.17
2023-08-12T06:13:25.841Z,85.06
2023-08-12T06:14:27.691Z,85.07
2023-08-12T06:15:29.789Z,85.04
2023-08-12T06:16:31.760Z,84.90
2023-08-12T06:17:33.720Z,84.88
2023-08-12T06:18:35.652Z,84.82
2023-08-12T06:19:37.645Z,84.41
2023-08-12T06:20:39.584Z,84.31
2023-08-12T06:21:41.685Z,84.48
2023-08-12T06:22:43.643Z,84.78
2023-08-12T06:23:45.644Z,84.70
2023-08-12T06:24:47.574Z,84.75
2023-08-12T06:25:49.628Z,84.67
2023-08-12T06:26:51.755Z,84.62
2023-08-12T06:27:53.784Z,84.33
2023-08-12T06:28:55.776Z,84.25
2023-08-12T06:29:57.630Z,83.84
2023-08-12T06:30:59.868Z,83.82
2023-08-12T06:32:01.826Z,83.61
2023-08-12T06:33:03.895Z,83.43
2023-08-12T06:34:05.967Z,82.97
2023-08-12T06:35:08.362Z,82.90
2023-08-12T06:36:10.078Z,82.56
2023-08-12T06:37:11.982Z,82.50
2023-08-12T06:38:14.889Z,82.39
2023-08-12T06:39:17.016Z,82.53
2023-08-12T06:40:18.973Z,82.65
2023-08-12T06:41:20.858Z,82.64
2023-08-12T06:42:24.149Z,82.33
2023-08-12T06:43:28.425Z,82.00
2023-08-12T06:44:32.033Z,81.95
2023-08-12T06:45:34.202Z,81.57
2023-08-12T06:46:36.181Z,81.37
2023-08-12T06:47:38.650Z,81.36
2023-08-12T06:48:40.638Z,80.97
2023-08-12T06:49:42.523Z,81.08
2023-08-12T06:50:45.097Z,80.93
2023-08-12T06:51:47.132Z,80.92
2023-08-12T06:52:49.054Z,80.88
2023-08-12T06:53:50.974Z,80.35
2023-08-12T06:54:52.949Z,80.58
2023-08-12T06:55:55.588Z,80.38
2023-08-12T06:56:57.595Z,80.24
2023-08-12T06:57:59.470Z,80.29
2023-08-12T06:59:01.384Z,80.41
2023-08-12T07:00:04.380Z,80.37
2023-08-12T07:01:06.440Z,79.68
2023-08-12T07:02:08.933Z,79.42
2023-08-12T07:03:11.091Z,78.99
2023-08-12T07:04:12.977Z,78.87
2023-08-12T07:05:15.114Z,78.71
2023-08-12T07:06:17.074Z,78.93
2023-08-12T07:07:19.089Z,78.81
2023-08-12T07:08:21.040Z,78.79
2023-08-12T07:09:23.018Z,78.31
2023-08-12T07:10:25.772Z,78.68
2023-08-12T07:11:28.725Z,78.40
2023-08-12T07:12:30.790Z,78.41
2023-08-12T07:13:32.938Z,78.35
2023-08-12T07:14:34.914Z,77.78
2023-08-12T07:15:37.207Z,77.34
2023-08-12T07:16:39.052Z,77.82
2023-08-12T07:17:41.329Z,78.06
2023-08-12T07:18:43.204Z,77.96
2023-08-12T07:19:45.182Z,77.35
2023-08-12T07:20:47.207Z,77.15
2023-08-12T07:21:49.170Z,77.00
2023-08-12T07:22:51.229Z,77.18
2023-08-12T07:24:03.231Z,77.10
2023-08-12T07:25:06.598Z,76.20
2023-08-12T07:26:08.766Z,76.23
2023-08-12T07:27:10.728Z,75.95
2023-08-12T07:28:13.270Z,76.11
2023-08-12T07:29:15.367Z,75.94
2023-08-12T07:30:17.356Z,75.99
2023-08-12T07:31:19.611Z,76.01
2023-08-12T07:32:22.790Z,75.60
2023-08-12T07:33:26.036Z,75.92
2023-08-12T07:34:30.242Z,75.88
2023-08-12T07:35:33.569Z,75.96
2023-08-12T07:36:35.516Z,75.51
2023-08-12T07:37:37.446Z,76.17
2023-08-12T07:38:39.680Z,76.29
2023-08-12T07:39:41.789Z,75.27
2023-08-12T07:40:43.756Z,75.03
2023-08-12T07:41:45.678Z,75.38
2023-08-12T07:42:47.581Z,74.76
2023-08-12T07:43:49.528Z,74.75
2023-08-12T07:44:52.286Z,74.40
2023-08-12T07:46:07.747Z,74.03
2023-08-12T07:47:12.112Z,74.16
2023-08-12T07:48:14.345Z,74.16
2023-08-12T07:49:17.942Z,74.05
2023-08-12T07:50:20.133Z,73.75
2023-08-12T07:51:22.071Z,74.00
2023-08-12T07:52:24.058Z,74.42
2023-08-12T07:53:27.158Z,74.23
2023-08-12T07:54:29.215Z,73.31
2023-08-12T07:55:31.198Z,73.13
2023-08-12T07:56:33.100Z,72.02
2023-08-12T07:57:35.244Z,71.82
2023-08-12T07:58:37.228Z,71.88
2023-08-12T07:59:39.272Z,71.88
2023-08-12T08:00:41.198Z,71.98
2023-08-12T08:01:43.164Z,71.90
2023-08-12T08:02:45.094Z,72.36
2023-08-12T08:03:47.498Z,71.36
2023-08-12T08:04:52.463Z,71.54
2023-08-12T08:05:54.735Z,72.07
2023-08-12T08:06:56.616Z,70.83
2023-08-12T08:07:58.493Z,70.59
2023-08-12T08:09:02.025Z,71.05
2023-08-12T08:10:04.614Z,70.37
2023-08-12T08:11:06.694Z,69.85
2023-08-12T08:12:10.229Z,69.25
2023-08-12T08:13:13.296Z,68.83
2023-08-12T08:14:15.235Z,69.60
2023-08-12T08:15:17.724Z,69.23
2023-08-12T08:16:19.541Z,69.85
2023-08-12T08:17:21.395Z,69.82
2023-08-12T08:18:23.338Z,70.43
2023-08-12T08:19:29.883Z,69.51
2023-08-12T08:20:32.872Z,69.64
2023-08-12T08:21:34.643Z,70.19
2023-08-12T08:22:36.479Z,69.42
2023-08-12T08:23:38.458Z,69.58
2023-08-12T08:24:40.347Z,69.80
2023-08-12T08:25:42.489Z,70.04
2023-08-12T08:26:46.908Z,70.31
2023-08-12T08:27:48.693Z,69.97
2023-08-12T08:28:50.494Z,70.10
2023-08-12T08:29:52.213Z,69.90
2023-08-12T08:30:53.966Z,70.05
2023-08-12T08:31:55.732Z,70.06
2023-08-12T08:32:57.762Z,69.12
2023-08-12T08:33:59.810Z,69.80
2023-08-12T08:35:01.552Z,69.77
2023-08-12T08:36:03.507Z,69.36
2023-08-12T08:37:05.404Z,68.81
2023-08-12T08:38:08.905Z,69.18
2023-08-12T08:39:10.797Z,68.54
2023-08-12T08:40:13.318Z,68.74
2023-08-12T08:41:18.232Z,68.92
2023-08-12T08:42:22.072Z,68.13
2023-08-12T08:43:24.639Z,69.29
2023-08-12T08:44:33.403Z,69.21
2023-08-12T08:45:35.854Z,68.90
2023-08-12T08:46:38.090Z,68.58
2023-08-12T08:47:42.474Z,69.12
2023-08-12T08:48:44.578Z,69.49
2023-08-12T08:49:46.435Z,70.12
2023-08-12T08:50:49.395Z,68.58
2023-08-12T08:51:52.286Z,68.29
2023-08-12T08:52:55.072Z,68.07
2023-08-12T08:53:58.504Z,67.85
2023-08-12T08:55:08.123Z,68.30
2023-08-12T08:56:16.069Z,67.75
2023-08-12T08:57:24.394Z,67.71
2023-08-12T08:58:30.156Z,67.41
2023-08-12T08:59:32.324Z,67.13
2023-08-12T09:00:34.351Z,67.46
2023-08-12T09:01:36.565Z,67.04
2023-08-12T09:02:38.824Z,67.48
2023-08-12T09:03:42.169Z,68.63
2023-08-12T09:04:45.315Z,67.37
2023-08-12T09:05:47.655Z,66.09
2023-08-12T09:06:51.004Z,64.16
2023-08-12T09:07:53.318Z,63.35
2023-08-12T09:08:55.561Z,64.86
2023-08-12T09:09:57.954Z,64.99
2023-08-12T09:11:03.789Z,65.02
2023-08-12T09:12:05.995Z,64.70
2023-08-12T09:13:08.331Z,64.32
2023-08-12T09:14:10.142Z,63.77
2023-08-12T09:15:11.937Z,64.59
2023-08-12T09:16:13.857Z,65.20
2023-08-12T09:17:16.404Z,64.52
2023-08-12T09:18:18.724Z,64.48
2023-08-12T09:19:20.523Z,63.82
2023-08-12T09:20:22.515Z,63.60
2023-08-12T09:21:24.648Z,62.66
2023-08-12T09:22:27.191Z,61.54
2023-08-12T09:23:29.002Z,62.20
2023-08-12T09:24:31.195Z,62.25
2023-08-12T09:25:33.508Z,63.43
2023-08-12T09:26:35.813Z,65.50
2023-08-12T09:27:39.260Z,64.45
2023-08-12T09:28:41.930Z,63.49
2023-08-12T09:29:43.899Z,63.61
2023-08-12T09:30:55.319Z,63.44
2023-08-12T09:32:19.303Z,61.55
2023-08-12T09:33:30.114Z,61.12
2023-08-12T09:34:32.560Z,61.79
2023-08-12T09:35:36.640Z,64.22
2023-08-12T09:36:38.603Z,63.17
2023-08-12T09:37:40.592Z,62.86
2023-08-12T09:38:42.871Z,60.88
2023-08-12T09:39:44.871Z,61.49
2023-08-12T09:40:48.814Z,59.92
2023-08-12T09:41:52.429Z,61.05
2023-08-12T09:42:54.373Z,62.47
2023-08-12T09:43:58.456Z,61.92
2023-08-12T09:45:00.505Z,61.85
2023-08-12T09:46:04.378Z,60.56
2023-08-12T09:47:09.772Z,60.49
2023-08-12T09:48:12.472Z,61.38
2023-08-12T09:49:15.389Z,62.49
2023-08-12T09:50:17.636Z,61.73
2023-08-12T09:51:19.932Z,61.48
2023-08-12T09:52:23.282Z,62.81
2023-08-12T09:53:25.048Z,60.87
2023-08-12T09:54:29.786Z,58.73
2023-08-12T09:55:33.175Z,61.67
2023-08-12T09:56:37.757Z,59.62
2023-08-12T09:57:42.230Z,58.26
2023-08-12T09:58:45.427Z,58.57
2023-08-12T09:59:47.964Z,58.28
2023-08-12T10:00:50.303Z,58.46
2023-08-12T10:01:53.837Z,58.19
2023-08-12T10:02:56.418Z,58.73
2023-08-12T10:03:58.232Z,59.49
2023-08-12T10:05:01.052Z,58.61
2023-08-12T10:06:05.691Z,58.28
2023-08-12T10:07:07.977Z,57.73
2023-08-12T10:08:11.216Z,59.36
2023-08-12T10:09:13.544Z,60.62
2023-08-12T10:10:18.660Z,59.38
2023-08-12T10:11:20.516Z,57.10
2023-08-12T10:12:23.043Z,56.93
2023-08-12T10:13:24.886Z,56.30
2023-08-12T10:14:27.322Z,54.81
2023-08-12T10:15:29.552Z,57.80
2023-08-12T10:16:31.521Z,56.57
2023-08-12T10:17:43.090Z,57.24
2023-08-12T10:18:47.959Z,58.24
2023-08-12T10:19:50.122Z,58.17
2023-08-12T10:20:52.938Z,56.22
2023-08-12T10:21:58.037Z,57.57
2023-08-12T10:23:01.014Z,58.20
2023-08-12T10:24:04.442Z,55.78
2023-08-12T10:25:09.348Z,55.09
2023-08-12T10:26:11.170Z,56.07
2023-08-12T10:27:14.237Z,56.42
2023-08-12T10:28:16.420Z,57.29
2023-08-12T10:29:18.506Z,57.55
2023-08-12T10:30:21.918Z,56.89
2023-08-12T10:31:23.872Z,56.33
2023-08-12T10:32:28.714Z,56.25
2023-08-12T10:33:30.550Z,55.17
2023-08-12T10:34:32.940Z,55.70
2023-08-12T10:35:48.169Z,57.03
2023-08-12T10:37:02.004Z,54.02
2023-08-12T10:38:06.872Z,54.88
2023-08-12T10:39:11.757Z,54.18
2023-08-12T10:40:23.819Z,53.07
2023-08-12T10:41:27.030Z,52.18
2023-08-12T10:42:42.566Z,51.07
2023-08-12T10:44:05.253Z,52.02
2023-08-12T10:45:07.169Z,52.34
2023-08-12T10:46:22.599Z,52.16
2023-08-12T10:47:24.383Z,53.86
2023-08-12T10:48:26.829Z,54.10
2023-08-12T10:49:28.685Z,55.16
2023-08-12T10:50:32.460Z,53.61
2023-08-12T10:51:46.112Z,53.49
2023-08-12T10:52:48.599Z,51.92
2023-08-12T10:53:51.362Z,53.87
2023-08-12T10:54:53.856Z,53.79
2023-08-12T10:55:56.179Z,52.13
2023-08-12T10:57:07.280Z,52.84
2023-08-12T10:58:10.194Z,49.96
2023-08-12T10:59:31.906Z,52.25
2023-08-12T11:00:33.752Z,49.96
2023-08-12T11:01:36.317Z,50.86
2023-08-12T11:02:39.039Z,51.88
2023-08-12T11:03:43.865Z,48.80
2023-08-12T11:04:49.438Z,48.92
2023-08-12T11:05:51.990Z,48.67
2023-08-12T11:06:53.881Z,49.15
2023-08-12T11:07:59.919Z,51.34
2023-08-12T11:09:01.836Z,48.40
2023-08-12T11:10:10.890Z,49.27
2023-08-12T11:11:23.658Z,50.46
2023-08-12T11:12:32.453Z,49.27
2023-08-12T11:13:47.610Z,48.46
2023-08-12T11:14:50.921Z,45.94
2023-08-12T11:15:52.738Z,48.24
2023-08-12T11:16:54.758Z,50.45
2023-08-12T11:17:56.627Z,48.89
2023-08-12T11:18:59.023Z,45.83
2023-08-12T11:20:01.967Z,47.05
2023-08-12T11:21:04.744Z,48.54
2023-08-12T11:22:06.755Z,48.04
2023-08-12T11:23:09.349Z,46.64
2023-08-12T11:24:11.739Z,45.19
2023-08-12T11:25:14.756Z,44.59
2023-08-12T11:26:16.841Z,45.44
2023-08-12T11:27:19.357Z,43.70
2023-08-12T11:28:21.372Z,45.79
2023-08-12T11:29:23.045Z,46.19
2023-08-12T11:30:25.792Z,46.31
2023-08-12T11:31:29.286Z,45.34
2023-08-12T11:32:31.141Z,45.04
2023-08-12T11:33:33.091Z,47.23
2023-08-12T11:34:35.122Z,46.26
2023-08-12T11:35:38.841Z,44.23
2023-08-12T11:36:40.657Z,44.11
2023-08-12T11:37:43.206Z,44.10
2023-08-12T11:38:45.208Z,45.27
2023-08-12T11:39:46.996Z,45.03
2023-08-12T11:40:48.857Z,45.01
2023-08-12T11:41:51.744Z,43.65
2023-08-12T11:42:53.937Z,44.36
2023-08-12T11:43:55.706Z,44.53
2023-08-12T11:44:57.692Z,42.48
2023-08-12T11:46:00.196Z,41.12
2023-08-12T11:47:02.234Z,42.45
2023-08-12T11:48:05.628Z,42.09
2023-08-12T11:49:07.396Z,43.20
2023-08-12T11:50:10.807Z,43.42
2023-08-12T11:51:13.206Z,43.10
2023-08-12T11:52:15.908Z,43.14
2023-08-12T11:53:18.489Z,42.74
2023-08-12T11:54:20.214Z,42.62
2023-08-12T11:55:22.348Z,41.26
2023-08-12T11:56:24.192Z,42.52
2023-08-12T11:57:27.489Z,43.30
2023-08-12T11:58:47.413Z,42.14
2023-08-12T12:00:01.201Z,40.83
2023-08-12T12:01:03.730Z,39.49
2023-08-12T12:02:05.764Z,40.65
2023-08-12T12:03:07.918Z,40.63
2023-08-12T12:04:11.850Z,39.59
2023-08-12T12:05:14.458Z,39.76
2023-08-12T12:06:16.361Z,41.84
2023-08-12T12:07:20.898Z,42.00
2023-08-12T12:08:23.761Z,40.53
2023-08-12T12:09:27.398Z,41.46
2023-08-12T12:10:34.838Z,41.71
2023-08-12T12:11:41.066Z,39.16
2023-08-12T12:12:43.076Z,39.76
2023-08-12T12:13:48.527Z,39.39
2023-08-12T12:14:51.932Z,38.64
2023-08-12T12:15:54.107Z,40.48
2023-08-12T12:16:56.203Z,41.15
2023-08-12T12:17:57.999Z,39.14
2023-08-12T12:19:00.092Z,38.20
2023-08-12T12:20:02.439Z,40.10
2023-08-12T12:21:04.343Z,39.48
2023-08-12T12:22:06.825Z,39.34
2023-08-12T12:23:08.594Z,38.23
2023-08-12T12:24:10.795Z,40.81
2023-08-12T12:25:16.663Z,40.36
2023-08-12T12:26:18.381Z,37.46
2023-08-12T12:27:20.211Z,38.86
2023-08-12T12:28:21.968Z,38.55
2023-08-12T12:29:24.105Z,37.36
2023-08-12T12:30:25.930Z,36.55
2023-08-12T12:31:27.738Z,36.51
2023-08-12T12:32:30.862Z,36.75
2023-08-12T12:33:32.824Z,35.78
2023-08-12T12:34:34.871Z,34.72
2023-08-12T12:35:47.770Z,33.17
2023-08-12T12:36:58.500Z,35.27
2023-08-12T12:38:00.439Z,36.16
2023-08-12T12:39:03.355Z,35.29
2023-08-12T12:40:06.820Z,34.21
2023-08-12T12:41:08.584Z,34.73
2023-08-12T12:42:12.016Z,33.52
2023-08-12T12:43:14.151Z,34.04
2023-08-12T12:44:15.983Z,36.54
2023-08-12T12:45:17.900Z,33.92
2023-08-12T12:46:19.818Z,35.05
2023-08-12T12:47:21.583Z,36.87
2023-08-12T12:48:23.471Z,37.29
2023-08-12T12:49:25.260Z,37.73
2023-08-12T12:50:27.314Z,40.11
2023-08-12T12:51:29.489Z,38.86
2023-08-12T12:52:31.374Z,39.23
2023-08-12T12:53:33.235Z,37.90
2023-08-12T12:54:34.957Z,36.26
2023-08-12T12:55:36.798Z,37.48
2023-08-12T12:56:38.563Z,38.55
2023-08-12T12:57:40.655Z,36.40
2023-08-12T12:58:42.452Z,36.74
2023-08-12T12:59:44.591Z,38.08
2023-08-12T13:00:46.594Z,35.71
2023-08-12T13:01:48.362Z,37.37
2023-08-12T13:02:50.249Z,35.78
2023-08-12T13:03:52.052Z,36.57
2023-08-12T13:04:54.213Z,35.08
2023-08-12T13:05:56.021Z,38.78
2023-08-12T13:06:57.825Z,37.63
2023-08-12T13:07:59.689Z,36.77
2023-08-12T13:09:01.890Z,36.00
2023-08-12T13:10:04.109Z,35.64
2023-08-12T13:11:06.204Z,36.68
2023-08-12T13:12:08.008Z,36.53
2023-08-12T13:13:09.924Z,35.92
2023-08-12T13:14:11.697Z,35.95
2023-08-12T13:15:13.853Z,35.83
2023-08-12T13:16:16.179Z,38.05
2023-08-12T13:17:17.993Z,36.60
2023-08-12T13:18:19.812Z,36.66
2023-08-12T13:19:21.619Z,37.13
2023-08-12T13:20:23.417Z,36.03
2023-08-12T13:21:28.873Z,34.23
2023-08-12T13:22:30.632Z,35.50
2023-08-12T13:23:32.509Z,34.48
2023-08-12T13:24:34.625Z,34.62
2023-08-12T13:25:37.064Z,35.49
2023-08-12T13:26:38.870Z,34.21
2023-08-12T13:27:40.733Z,35.90
2023-08-12T13:28:42.885Z,37.12
2023-08-12T13:29:44.706Z,35.31
2023-08-12T13:30:46.908Z,34.20
2023-08-12T13:31:48.736Z,34.87
2023-08-12T13:32:50.530Z,34.19